Crosby, Minnesota
Current Conditions -  °F | °C
As of 6:53 PM on Friday 19 Dec 2014 (Local Time) from KBRD Reporting Station
Haze Haze  
Wind Chill: 16°   Ceiling: 500
Heat Index: 25°   Visibility: 2mi
Dew Point: 24°   Wind: 8mph
Humidity: 96%   Direction: 160°SSE
Pressure: 30.12"   Gusts: NA
Location:  46.48°N, 93.96°W
Report Text: KBRD 200053Z AUTO 16007KT 2SM BR OVC005 M04/M04 A3012 RMK AO2 SLP222 I1001 T10391044
Loading
Personal Weather Stations






























Interactive Weather Map New forecast layout! Learn more

10-Day Weather Forecast

Advertisements
Track Severe Weather on mobile